createdAt,value
2022-09-07T00:01:07.322Z,100726.38
2022-09-07T00:04:09.867Z,100725.91
2022-09-07T00:07:12.347Z,100732.31
2022-09-07T00:10:16.722Z,100723.41
2022-09-07T00:13:19.165Z,100725.34
2022-09-07T00:16:24.400Z,100726.66
2022-09-07T00:19:26.879Z,100734.91
2022-09-07T00:22:29.334Z,100729.44
2022-09-07T00:25:33.447Z,100726.66
2022-09-07T00:28:36.648Z,100724.25
2022-09-07T00:31:39.185Z,100723.09
2022-09-07T00:34:41.728Z,100722.72
2022-09-07T00:37:44.182Z,100721.41
2022-09-07T00:40:48.076Z,100713.53
2022-09-07T00:43:52.644Z,100696.16
2022-09-07T00:46:55.157Z,100702.47
2022-09-07T00:50:00.921Z,100696.38
2022-09-07T00:53:08.060Z,100691.63
2022-09-07T00:56:12.792Z,100686.63
2022-09-07T00:59:20.007Z,100685.97
2022-09-07T01:02:23.161Z,100682.81
2022-09-07T01:05:32.285Z,100692.09
2022-09-07T01:08:35.858Z,100691.44
2022-09-07T01:11:40.265Z,100680.50
2022-09-07T01:14:47.885Z,100680.47
2022-09-07T01:18:01.150Z,100678.63
2022-09-07T01:21:23.811Z,100673.22
2022-09-07T01:24:42.710Z,100679.50
2022-09-07T01:28:00.313Z,100677.50
2022-09-07T01:31:12.549Z,100683.56
2022-09-07T01:34:21.688Z,100672.38
2022-09-07T01:37:31.608Z,100676.53
2022-09-07T01:40:42.746Z,100673.63
2022-09-07T01:43:54.459Z,100681.59
2022-09-07T01:47:02.210Z,100679.59
2022-09-07T01:50:10.111Z,100681.88
2022-09-07T01:53:16.925Z,100673.59
2022-09-07T01:56:25.504Z,100675.81
2022-09-07T01:59:33.567Z,100680.16
2022-09-07T02:02:41.848Z,100678.53
2022-09-07T02:05:49.389Z,100678.06
2022-09-07T02:08:57.068Z,100677.03
2022-09-07T02:12:03.164Z,100684.06
2022-09-07T02:15:14.583Z,100683.19
2022-09-07T02:18:17.032Z,100680.28
2022-09-07T02:21:25.026Z,100668.53
2022-09-07T02:24:32.110Z,100665.25
2022-09-07T02:27:40.611Z,100660.34
2022-09-07T02:30:44.914Z,100657.25
2022-09-07T02:33:47.779Z,100647.84
2022-09-07T02:36:52.311Z,100658.34
2022-09-07T02:39:55.479Z,100654.16
2022-09-07T02:42:59.448Z,100654.03
2022-09-07T02:46:20.543Z,100656.41
2022-09-07T02:49:38.496Z,100662.56
2022-09-07T02:52:48.129Z,100664.69
2022-09-07T02:56:00.868Z,100661.16
2022-09-07T02:59:13.746Z,100664.50
2022-09-07T03:02:22.652Z,100669.31
2022-09-07T03:05:28.461Z,100670.41
2022-09-07T03:08:35.525Z,100668.94
2022-09-07T03:11:38.478Z,100670.16
2022-09-07T03:14:42.548Z,100668.06
2022-09-07T03:17:46.839Z,100673.16
2022-09-07T03:20:49.369Z,100657.88
2022-09-07T03:23:52.073Z,100662.88
2022-09-07T03:26:54.548Z,100658.22
2022-09-07T03:29:56.996Z,100654.59
2022-09-07T03:33:00.749Z,100652.72
2022-09-07T03:36:03.564Z,100650.38
2022-09-07T03:39:07.353Z,100645.31
2022-09-07T03:42:09.864Z,100638.41
2022-09-07T03:45:12.483Z,100632.00
2022-09-07T03:48:16.244Z,100623.06
2022-09-07T03:51:19.232Z,100622.66
2022-09-07T03:54:22.181Z,100614.44
2022-09-07T03:57:28.830Z,100619.84
2022-09-07T04:00:31.279Z,100607.94
2022-09-07T04:03:35.314Z,100603.88
2022-09-07T04:06:37.864Z,100609.59
2022-09-07T04:09:40.573Z,100609.81
2022-09-07T04:12:43.025Z,100611.13
2022-09-07T04:15:45.529Z,100609.34
2022-09-07T04:18:50.441Z,100612.78
2022-09-07T04:21:53.140Z,100592.16
2022-09-07T04:24:55.710Z,100580.19
2022-09-07T04:27:58.261Z,100586.28
2022-09-07T04:31:01.728Z,100578.94
2022-09-07T04:34:07.132Z,100584.94
2022-09-07T04:37:09.721Z,100582.09
2022-09-07T04:40:12.709Z,100588.25
2022-09-07T04:43:15.196Z,100590.06
2022-09-07T04:46:20.452Z,100588.31
2022-09-07T04:49:24.243Z,100592.19
2022-09-07T04:52:26.704Z,100603.50
2022-09-07T04:55:29.153Z,100597.22
2022-09-07T04:58:32.083Z,100588.19
2022-09-07T05:01:35.125Z,100592.25
2022-09-07T05:04:38.951Z,100598.00
2022-09-07T05:07:41.415Z,100593.25
2022-09-07T05:10:51.990Z,100594.22
2022-09-07T05:13:56.298Z,100592.50
2022-09-07T05:16:58.772Z,100600.19
2022-09-07T05:20:03.026Z,100595.22
2022-09-07T05:23:05.539Z,100601.56
2022-09-07T05:26:08.361Z,100606.19
2022-09-07T05:32:33.860Z,100609.06
2022-09-07T05:35:37.669Z,100602.88
2022-09-07T05:38:40.189Z,100600.03
2022-09-07T05:41:42.611Z,100583.25
2022-09-07T05:44:45.700Z,100586.31
2022-09-07T05:47:50.818Z,100590.28
2022-09-07T05:50:54.574Z,100583.53
2022-09-07T05:53:57.257Z,100576.97
2022-09-07T05:56:59.723Z,100574.69
2022-09-07T06:00:03.099Z,100587.31
2022-09-07T06:03:05.800Z,100569.69
2022-09-07T06:06:11.465Z,100578.47
2022-09-07T06:09:14.109Z,100574.38
2022-09-07T06:12:16.656Z,100577.69
2022-09-07T06:15:19.121Z,100580.22
2022-09-07T06:18:21.575Z,100585.19
2022-09-07T06:21:25.713Z,100588.22
2022-09-07T06:24:28.157Z,100587.94
2022-09-07T06:27:30.620Z,100586.25
2022-09-07T06:30:33.793Z,100598.00
2022-09-07T06:33:36.523Z,100601.66
2022-09-07T06:36:40.275Z,100599.84
2022-09-07T06:39:42.793Z,100592.69
2022-09-07T06:42:45.280Z,100594.84
2022-09-07T06:45:53.637Z,100594.00
2022-09-07T06:48:56.175Z,100598.25
2022-09-07T06:51:59.935Z,100593.56
2022-09-07T06:55:02.410Z,100581.84
2022-09-07T06:58:04.904Z,100588.31
2022-09-07T07:01:10.303Z,100579.66
2022-09-07T07:04:13.185Z,100586.53
2022-09-07T07:07:17.212Z,100601.13
2022-09-07T07:10:24.276Z,100591.88
2022-09-07T07:13:27.454Z,100587.75
2022-09-07T07:16:30.006Z,100592.34
2022-09-07T07:19:32.483Z,100582.69
2022-09-07T07:22:46.503Z,100579.72
2022-09-07T07:25:49.735Z,100580.16
2022-09-07T07:29:00.816Z,100588.38
2022-09-07T07:32:05.239Z,100576.19
2022-09-07T07:35:08.818Z,100575.13
2022-09-07T07:48:20.029Z,100582.16
2022-09-07T07:51:22.776Z,100583.81
2022-09-07T07:54:26.639Z,100576.59
2022-09-07T07:57:29.573Z,100577.19
2022-09-07T08:00:50.878Z,100568.97
2022-09-07T08:03:54.315Z,100568.44
2022-09-07T08:06:56.753Z,100572.44
2022-09-07T08:10:00.477Z,100567.22
2022-09-07T08:13:02.884Z,100573.66
2022-09-07T08:16:06.427Z,100574.94
2022-09-07T08:19:08.901Z,100564.13
2022-09-07T08:22:12.861Z,100564.25
2022-09-07T08:25:17.427Z,100567.31
2022-09-07T08:28:20.201Z,100565.00
2022-09-07T08:31:23.045Z,100560.75
2022-09-07T08:37:27.817Z,100565.69
2022-09-07T08:40:32.423Z,100565.59
2022-09-07T08:43:49.247Z,100579.47
2022-09-07T08:46:56.484Z,100576.88
2022-09-07T08:50:04.502Z,100574.09
2022-09-07T08:53:13.449Z,100586.47
2022-09-07T08:56:21.781Z,100581.41
2022-09-07T08:59:27.587Z,100585.09
2022-09-07T09:02:33.634Z,100590.00
2022-09-07T09:05:43.904Z,100580.78
2022-09-07T09:09:11.782Z,100573.50
2022-09-07T09:12:22.855Z,100549.66
2022-09-07T09:15:33.516Z,100550.88
2022-09-07T09:18:50.888Z,100562.72
2022-09-07T09:22:08.569Z,100561.13
2022-09-07T09:25:19.349Z,100555.75
2022-09-07T09:28:26.462Z,100547.84
2022-09-07T09:31:36.159Z,100536.88
2022-09-07T09:34:38.693Z,100529.63
2022-09-07T09:37:42.787Z,100527.25
2022-09-07T09:40:53.541Z,100528.09
2022-09-07T09:43:58.151Z,100513.63
2022-09-07T09:54:00.861Z,100521.31
2022-09-07T09:57:03.582Z,100524.31
2022-09-07T10:00:23.621Z,100527.94
2022-09-07T10:06:57.851Z,100515.88
2022-09-07T10:10:00.637Z,100520.38
2022-09-07T10:13:03.107Z,100530.94
2022-09-07T10:16:09.257Z,100526.63
2022-09-07T10:19:26.325Z,100532.44
2022-09-07T10:22:34.329Z,100520.63
2022-09-07T10:25:39.627Z,100517.06
2022-09-07T10:32:21.619Z,100513.50
2022-09-07T10:35:28.810Z,100497.28
2022-09-07T10:38:35.741Z,100496.16
2022-09-07T10:41:44.038Z,100501.22
2022-09-07T10:45:01.600Z,100500.19
2022-09-07T10:48:13.976Z,100502.66
2022-09-07T10:51:18.691Z,100498.59
2022-09-07T10:54:35.395Z,100506.19
2022-09-07T10:57:51.747Z,100499.63
2022-09-07T11:01:09.451Z,100507.31
2022-09-07T11:04:33.329Z,100498.94
2022-09-07T11:07:55.257Z,100499.25
2022-09-07T11:11:08.836Z,100499.84
2022-09-07T11:14:15.255Z,100493.41
2022-09-07T11:17:21.705Z,100493.56
2022-09-07T11:20:30.897Z,100488.66
2022-09-07T11:23:41.420Z,100479.66
2022-09-07T11:26:51.668Z,100483.38
2022-09-07T11:30:04.148Z,100478.88
2022-09-07T11:33:16.201Z,100475.28
2022-09-07T11:36:21.870Z,100483.19
2022-09-07T11:39:30.140Z,100482.69
2022-09-07T11:42:43.202Z,100477.66
2022-09-07T11:45:50.323Z,100472.44
2022-09-07T11:48:56.688Z,100476.56
2022-09-07T11:52:05.632Z,100475.72
2022-09-07T11:55:12.200Z,100464.31
2022-09-07T11:58:35.742Z,100468.72
2022-09-07T12:01:46.421Z,100458.25
2022-09-07T12:05:03.663Z,100459.16
2022-09-07T12:08:23.021Z,100453.03
2022-09-07T12:11:42.544Z,100459.09
2022-09-07T12:14:58.671Z,100442.47
2022-09-07T12:18:19.178Z,100443.69
2022-09-07T12:21:32.675Z,100438.72
2022-09-07T12:24:40.771Z,100436.28
2022-09-07T12:27:43.173Z,100440.75
2022-09-07T12:31:00.513Z,100446.16
2022-09-07T12:34:36.545Z,100450.16
2022-09-07T12:37:43.513Z,100450.69
2022-09-07T12:41:00.286Z,100449.41
2022-09-07T12:44:08.247Z,100446.34
2022-09-07T12:47:28.981Z,100442.63
2022-09-07T12:50:39.319Z,100439.47
2022-09-07T12:53:47.424Z,100433.81
2022-09-07T13:00:25.550Z,100434.75
2022-09-07T13:03:51.766Z,100434.00
2022-09-07T13:07:18.092Z,100435.19
2022-09-07T13:10:30.689Z,100431.69
2022-09-07T13:17:41.586Z,100412.59
2022-09-07T13:20:44.004Z,100414.50
2022-09-07T13:27:54.165Z,100414.00
2022-09-07T13:31:10.442Z,100415.31
2022-09-07T13:34:46.200Z,100417.19
2022-09-07T13:37:53.635Z,100413.69
2022-09-07T13:41:07.123Z,100413.59
2022-09-07T13:44:25.006Z,100413.63
2022-09-07T13:47:45.229Z,100409.84
2022-09-07T13:50:57.748Z,100396.97
2022-09-07T13:54:07.213Z,100399.16
2022-09-07T13:57:21.044Z,100394.50
2022-09-07T14:00:24.601Z,100394.97
2022-09-07T14:03:31.563Z,100391.50
2022-09-07T14:06:35.407Z,100397.91
2022-09-07T14:09:37.817Z,100396.75
2022-09-07T14:12:45.020Z,100395.47
2022-09-07T14:15:49.250Z,100406.31
2022-09-07T14:18:54.639Z,100401.25
2022-09-07T14:21:59.828Z,100403.97
2022-09-07T14:25:05.385Z,100407.25
2022-09-07T14:28:30.286Z,100403.56
2022-09-07T14:31:33.180Z,100403.03
2022-09-07T14:34:38.707Z,100397.75
2022-09-07T14:37:41.495Z,100394.41
2022-09-07T14:40:44.711Z,100394.41
2022-09-07T14:43:55.449Z,100388.09
2022-09-07T14:47:00.258Z,100386.38
2022-09-07T14:50:05.301Z,100386.06
2022-09-07T14:56:35.341Z,100390.50
2022-09-07T14:59:41.222Z,100381.69
2022-09-07T15:02:43.778Z,100370.84
2022-09-07T15:05:49.339Z,100370.53
2022-09-07T15:08:51.755Z,100371.50
2022-09-07T15:12:04.282Z,100364.25
2022-09-07T15:15:25.159Z,100367.66
2022-09-07T15:18:52.364Z,100365.19
2022-09-07T15:21:56.495Z,100357.47
2022-09-07T15:24:58.964Z,100352.78
2022-09-07T15:28:01.561Z,100353.00
2022-09-07T15:34:26.460Z,100343.72
2022-09-07T15:41:20.712Z,100325.69
2022-09-07T15:44:24.310Z,100327.59
2022-09-07T15:47:50.382Z,100318.00
2022-09-07T15:50:50.954Z,100321.38
2022-09-07T16:00:39.695Z,100328.31
2022-09-07T16:03:42.194Z,100320.06
2022-09-07T16:06:47.852Z,100337.09
2022-09-07T16:09:52.567Z,100335.72
2022-09-07T16:13:09.741Z,100342.81
2022-09-07T16:16:15.743Z,100343.16
2022-09-07T16:19:21.446Z,100349.03
2022-09-07T16:25:57.903Z,100353.88
2022-09-07T16:29:01.541Z,100364.59
2022-09-07T16:35:27.003Z,100353.81
2022-09-07T16:38:45.493Z,100360.16
2022-09-07T16:41:49.888Z,100351.31
2022-09-07T16:44:52.827Z,100329.47
2022-09-07T16:47:56.835Z,100324.94
2022-09-07T16:51:02.517Z,100325.63
2022-09-07T16:54:05.760Z,100327.25
2022-09-07T16:57:09.499Z,100330.72
2022-09-07T17:00:13.169Z,100325.97
2022-09-07T17:03:15.564Z,100329.28
2022-09-07T17:06:20.206Z,100331.28
2022-09-07T17:09:26.413Z,100321.34
2022-09-07T17:12:30.170Z,100316.00
2022-09-07T17:15:33.870Z,100309.38
2022-09-07T17:22:00.672Z,100315.06
2022-09-07T17:25:03.105Z,100316.88
2022-09-07T17:28:06.835Z,100324.75
2022-09-07T17:32:22.292Z,100331.38
2022-09-07T17:34:34.076Z,100330.47
2022-09-07T17:37:36.518Z,100325.88
2022-09-07T17:40:39.158Z,100327.88
2022-09-07T17:43:45.590Z,100329.59
2022-09-07T17:46:48.471Z,100340.47
2022-09-07T17:49:50.869Z,100350.63
2022-09-07T17:52:53.317Z,100344.16
2022-09-07T17:55:55.743Z,100336.81
2022-09-07T18:02:22.864Z,100340.34
2022-09-07T18:05:25.558Z,100341.34
2022-09-07T18:08:28.688Z,100347.66
2022-09-07T18:11:47.986Z,100341.63
2022-09-07T18:14:52.879Z,100334.28
2022-09-07T18:17:55.362Z,100332.88
2022-09-07T18:20:57.761Z,100320.47
2022-09-07T18:24:04.783Z,100323.44
2022-09-07T18:27:07.810Z,100324.84
2022-09-07T18:30:13.792Z,100328.91
2022-09-07T18:33:16.560Z,100330.06
2022-09-07T18:36:19.005Z,100337.09
2022-09-07T18:39:21.481Z,100332.72
2022-09-07T18:42:23.927Z,100339.78
2022-09-07T18:45:28.182Z,100338.09
2022-09-07T18:48:31.918Z,100334.03
2022-09-07T18:52:51.530Z,100325.97
2022-09-07T18:54:56.935Z,100329.34
2022-09-07T18:58:01.270Z,100331.72
2022-09-07T19:01:06.554Z,100331.88
2022-09-07T19:04:09.107Z,100328.50
2022-09-07T19:07:12.195Z,100331.88
2022-09-07T19:10:16.714Z,100332.19
2022-09-07T19:13:19.177Z,100319.06
2022-09-07T19:16:22.956Z,100312.00
2022-09-07T19:19:26.504Z,100313.25
2022-09-07T19:22:29.518Z,100318.47
2022-09-07T19:25:31.928Z,100312.56
2022-09-07T19:28:35.064Z,100310.72
2022-09-07T19:31:38.978Z,100319.31
2022-09-07T19:34:45.372Z,100328.75
2022-09-07T19:37:49.254Z,100324.81
2022-09-07T19:40:58.314Z,100330.91
2022-09-07T19:44:00.759Z,100327.94
2022-09-07T19:47:04.580Z,100328.22
2022-09-07T19:50:07.559Z,100326.78
2022-09-07T19:53:09.967Z,100324.41
2022-09-07T19:56:15.694Z,100328.34
2022-09-07T19:59:19.535Z,100322.00
2022-09-07T20:02:23.397Z,100323.13
2022-09-07T20:05:29.448Z,100326.09
2022-09-07T20:08:32.003Z,100319.59
2022-09-07T20:11:35.546Z,100319.84
2022-09-07T20:14:37.968Z,100307.63
2022-09-07T20:17:41.803Z,100314.53
2022-09-07T20:20:44.206Z,100311.13
2022-09-07T20:23:47.108Z,100307.16
2022-09-07T20:26:49.830Z,100291.72
2022-09-07T20:29:53.176Z,100292.00
2022-09-07T20:32:56.993Z,100288.06
2022-09-07T20:36:04.285Z,100301.22
2022-09-07T20:39:06.975Z,100305.38
2022-09-07T20:42:09.388Z,100304.53
2022-09-07T20:45:11.975Z,100318.09
2022-09-07T20:48:16.237Z,100310.19
2022-09-07T20:51:21.136Z,100313.31
2022-09-07T20:54:23.764Z,100301.66
2022-09-07T20:57:26.158Z,100294.78
2022-09-07T21:00:29.670Z,100300.28
2022-09-07T21:03:33.535Z,100297.91
2022-09-07T21:06:36.094Z,100287.75
2022-09-07T21:09:38.499Z,100294.94
2022-09-07T21:12:40.941Z,100296.66
2022-09-07T21:15:45.059Z,100304.81
2022-09-07T21:18:53.578Z,100298.31
2022-09-07T21:21:56.060Z,100296.28
2022-09-07T21:24:58.629Z,100291.63
2022-09-07T21:28:01.132Z,100287.13
2022-09-07T21:31:06.448Z,100279.63
2022-09-07T21:34:11.376Z,100275.66
2022-09-07T21:37:13.786Z,100281.69
2022-09-07T21:40:17.326Z,100287.97
2022-09-07T21:43:20.126Z,100286.41
2022-09-07T21:46:22.722Z,100276.03
2022-09-07T21:49:26.483Z,100282.50
2022-09-07T21:52:28.873Z,100282.63
2022-09-07T21:55:31.717Z,100282.00
2022-09-07T21:58:34.248Z,100295.16
2022-09-07T22:01:36.731Z,100292.97
2022-09-07T22:04:40.603Z,100307.19
2022-09-07T22:07:42.992Z,100303.66
2022-09-07T22:10:46.488Z,100306.34
2022-09-07T22:13:49.163Z,100299.47
2022-09-07T22:16:51.584Z,100302.56
2022-09-07T22:19:55.306Z,100297.84
2022-09-07T22:22:57.911Z,100306.97
2022-09-07T22:26:00.634Z,100295.56
2022-09-07T22:29:03.051Z,100296.28
2022-09-07T22:32:06.909Z,100292.41
2022-09-07T22:35:10.867Z,100280.19
2022-09-07T22:38:13.263Z,100276.91
2022-09-07T22:41:18.004Z,100275.34
2022-09-07T22:44:20.398Z,100270.50
2022-09-07T22:47:22.810Z,100270.66
2022-09-07T22:50:26.702Z,100265.56
2022-09-07T22:53:30.061Z,100264.84
2022-09-07T22:56:33.933Z,100265.69
2022-09-07T22:59:36.659Z,100253.84
2022-09-07T23:02:39.050Z,100259.41
2022-09-07T23:05:42.781Z,100252.72
2022-09-07T23:08:45.196Z,100258.06
2022-09-07T23:11:48.764Z,100253.47
2022-09-07T23:14:51.163Z,100250.56
2022-09-07T23:17:53.563Z,100239.25
2022-09-07T23:21:00.559Z,100234.53
2022-09-07T23:24:03.793Z,100231.72
2022-09-07T23:27:06.636Z,100226.22
2022-09-07T23:30:10.181Z,100220.88
2022-09-07T23:33:12.583Z,100230.13
2022-09-07T23:36:17.430Z,100216.09
2022-09-07T23:39:19.867Z,100216.09
2022-09-07T23:42:22.690Z,100217.34
2022-09-07T23:45:25.375Z,100222.69
2022-09-07T23:48:28.192Z,100210.78
2022-09-07T23:51:31.917Z,100220.50
2022-09-07T23:54:34.316Z,100220.38
2022-09-07T23:57:36.737Z,100222.19
